sensor_id;sensor_type;location;lat;lon;timestamp;P1;durP1;ratioP1;P2;durP2;ratioP2
2706;SDS011;7819;48.046;7.642;2023-05-08T00:02:09;3.20;;;2.90;;
2706;SDS011;7819;48.046;7.642;2023-05-08T00:04:34;2.70;;;2.50;;
2706;SDS011;7819;48.046;7.642;2023-05-08T00:06:59;3.17;;;2.97;;
2706;SDS011;7819;48.046;7.642;2023-05-08T00:09:24;2.50;;;2.30;;
2706;SDS011;7819;48.046;7.642;2023-05-08T00:11:49;2.70;;;2.50;;
2706;SDS011;7819;48.046;7.642;2023-05-08T00:14:15;2.90;;;2.70;;
2706;SDS011;7819;48.046;7.642;2023-05-08T00:16:40;3.80;;;3.20;;
2706;SDS011;7819;48.046;7.642;2023-05-08T00:19:05;2.70;;;2.50;;
2706;SDS011;7819;48.046;7.642;2023-05-08T00:21:30;3.13;;;2.93;;
2706;SDS011;7819;48.046;7.642;2023-05-08T00:23:56;2.67;;;2.47;;
2706;SDS011;7819;48.046;7.642;2023-05-08T00:26:21;3.50;;;3.20;;
2706;SDS011;7819;48.046;7.642;2023-05-08T00:28:46;3.30;;;3.00;;
2706;SDS011;7819;48.046;7.642;2023-05-08T00:31:11;2.90;;;2.70;;
2706;SDS011;7819;48.046;7.642;2023-05-08T00:33:37;3.47;;;3.27;;
2706;SDS011;7819;48.046;7.642;2023-05-08T00:36:03;3.30;;;3.10;;
2706;SDS011;7819;48.046;7.642;2023-05-08T00:38:29;2.43;;;2.30;;
2706;SDS011;7819;48.046;7.642;2023-05-08T00:40:54;3.10;;;2.90;;
2706;SDS011;7819;48.046;7.642;2023-05-08T00:43:20;3.50;;;3.30;;
2706;SDS011;7819;48.046;7.642;2023-05-08T00:45:49;2.87;;;2.67;;
2706;SDS011;7819;48.046;7.642;2023-05-08T00:48:14;3.37;;;3.07;;
2706;SDS011;7819;48.046;7.642;2023-05-08T00:50:40;3.47;;;3.17;;
2706;SDS011;7819;48.046;7.642;2023-05-08T00:53:05;3.17;;;2.97;;
2706;SDS011;7819;48.046;7.642;2023-05-08T00:55:30;3.17;;;2.97;;
2706;SDS011;7819;48.046;7.642;2023-05-08T00:57:56;2.50;;;2.30;;
2706;SDS011;7819;48.046;7.642;2023-05-08T01:00:22;3.37;;;3.17;;
2706;SDS011;7819;48.046;7.642;2023-05-08T01:02:47;3.30;;;3.00;;
2706;SDS011;7819;48.046;7.642;2023-05-08T01:05:12;3.37;;;3.10;;
2706;SDS011;7819;48.046;7.642;2023-05-08T01:07:37;2.93;;;2.73;;
2706;SDS011;7819;48.046;7.642;2023-05-08T01:10:03;2.60;;;2.40;;
2706;SDS011;7819;48.046;7.642;2023-05-08T01:12:30;3.10;;;2.90;;
2706;SDS011;7819;48.046;7.642;2023-05-08T01:15:06;2.77;;;2.57;;
2706;SDS011;7819;48.046;7.642;2023-05-08T01:23:07;3.83;;;2.60;;
2706;SDS011;7819;48.046;7.642;2023-05-08T01:31:03;3.00;;;2.80;;
2706;SDS011;7819;48.046;7.642;2023-05-08T01:33:32;2.70;;;2.50;;
2706;SDS011;7819;48.046;7.642;2023-05-08T01:35:59;3.23;;;2.93;;
2706;SDS011;7819;48.046;7.642;2023-05-08T01:38:31;3.80;;;3.10;;
2706;SDS011;7819;48.046;7.642;2023-05-08T01:41:14;3.30;;;3.10;;
2706;SDS011;7819;48.046;7.642;2023-05-08T01:43:51;3.60;;;3.40;;
2706;SDS011;7819;48.046;7.642;2023-05-08T01:46:18;3.40;;;3.10;;
2706;SDS011;7819;48.046;7.642;2023-05-08T01:51:30;3.37;;;3.07;;
2706;SDS011;7819;48.046;7.642;2023-05-08T01:53:57;3.50;;;3.30;;
2706;SDS011;7819;48.046;7.642;2023-05-08T01:56:24;3.80;;;3.50;;
2706;SDS011;7819;48.046;7.642;2023-05-08T01:58:53;3.20;;;3.00;;
2706;SDS011;7819;48.046;7.642;2023-05-08T02:01:20;3.10;;;2.90;;
2706;SDS011;7819;48.046;7.642;2023-05-08T02:03:46;3.47;;;3.20;;
2706;SDS011;7819;48.046;7.642;2023-05-08T02:06:13;3.77;;;3.47;;
2706;SDS011;7819;48.046;7.642;2023-05-08T02:08:40;2.93;;;2.73;;
2706;SDS011;7819;48.046;7.642;2023-05-08T02:11:07;3.43;;;3.13;;
2706;SDS011;7819;48.046;7.642;2023-05-08T02:13:33;4.07;;;3.77;;
2706;SDS011;7819;48.046;7.642;2023-05-08T02:15:59;4.03;;;3.73;;
2706;SDS011;7819;48.046;7.642;2023-05-08T02:18:25;3.70;;;3.40;;
2706;SDS011;7819;48.046;7.642;2023-05-08T02:20:51;3.80;;;3.60;;
2706;SDS011;7819;48.046;7.642;2023-05-08T02:23:18;3.87;;;3.57;;
2706;SDS011;7819;48.046;7.642;2023-05-08T02:25:44;3.80;;;3.60;;
2706;SDS011;7819;48.046;7.642;2023-05-08T02:28:10;4.17;;;3.87;;
2706;SDS011;7819;48.046;7.642;2023-05-08T02:30:36;4.17;;;3.87;;
2706;SDS011;7819;48.046;7.642;2023-05-08T02:33:01;8.80;;;7.30;;
2706;SDS011;7819;48.046;7.642;2023-05-08T02:35:27;4.00;;;3.70;;
2706;SDS011;7819;48.046;7.642;2023-05-08T02:37:55;3.73;;;3.43;;
2706;SDS011;7819;48.046;7.642;2023-05-08T02:40:21;3.63;;;3.33;;
2706;SDS011;7819;48.046;7.642;2023-05-08T02:42:47;3.90;;;3.60;;
2706;SDS011;7819;48.046;7.642;2023-05-08T02:45:16;4.13;;;3.93;;
2706;SDS011;7819;48.046;7.642;2023-05-08T02:52:48;3.57;;;3.37;;
2706;SDS011;7819;48.046;7.642;2023-05-08T02:57:46;4.40;;;4.03;;
2706;SDS011;7819;48.046;7.642;2023-05-08T03:00:19;3.90;;;3.70;;
2706;SDS011;7819;48.046;7.642;2023-05-08T03:02:51;3.53;;;3.33;;
2706;SDS011;7819;48.046;7.642;2023-05-08T03:05:19;3.33;;;3.23;;
2706;SDS011;7819;48.046;7.642;2023-05-08T03:07:49;4.40;;;4.10;;
2706;SDS011;7819;48.046;7.642;2023-05-08T03:10:15;3.67;;;3.47;;
2706;SDS011;7819;48.046;7.642;2023-05-08T03:12:45;3.50;;;3.20;;
2706;SDS011;7819;48.046;7.642;2023-05-08T03:15:44;3.70;;;3.50;;
2706;SDS011;7819;48.046;7.642;2023-05-08T03:18:02;3.77;;;3.57;;
2706;SDS011;7819;48.046;7.642;2023-05-08T03:20:32;4.40;;;4.20;;
2706;SDS011;7819;48.046;7.642;2023-05-08T03:22:59;4.10;;;3.80;;
2706;SDS011;7819;48.046;7.642;2023-05-08T03:25:26;4.00;;;3.30;;
2706;SDS011;7819;48.046;7.642;2023-05-08T03:27:52;4.37;;;4.07;;
2706;SDS011;7819;48.046;7.642;2023-05-08T03:30:18;3.97;;;3.67;;
2706;SDS011;7819;48.046;7.642;2023-05-08T03:32:44;4.10;;;3.90;;
2706;SDS011;7819;48.046;7.642;2023-05-08T03:35:10;4.37;;;4.17;;
2706;SDS011;7819;48.046;7.642;2023-05-08T03:37:36;3.77;;;3.50;;
2706;SDS011;7819;48.046;7.642;2023-05-08T03:40:01;3.57;;;3.37;;
2706;SDS011;7819;48.046;7.642;2023-05-08T03:42:27;5.00;;;4.60;;
2706;SDS011;7819;48.046;7.642;2023-05-08T03:44:54;4.60;;;4.30;;
2706;SDS011;7819;48.046;7.642;2023-05-08T03:47:21;4.57;;;4.20;;
2706;SDS011;7819;48.046;7.642;2023-05-08T03:49:48;4.23;;;4.03;;
2706;SDS011;7819;48.046;7.642;2023-05-08T03:52:14;4.47;;;4.10;;
2706;SDS011;7819;48.046;7.642;2023-05-08T03:54:40;4.90;;;4.50;;
2706;SDS011;7819;48.046;7.642;2023-05-08T03:57:05;4.70;;;4.40;;
2706;SDS011;7819;48.046;7.642;2023-05-08T03:59:41;5.00;;;4.50;;
2706;SDS011;7819;48.046;7.642;2023-05-08T04:04:39;4.97;;;4.67;;
2706;SDS011;7819;48.046;7.642;2023-05-08T04:09:59;5.50;;;5.20;;
2706;SDS011;7819;48.046;7.642;2023-05-08T04:12:31;5.57;;;5.27;;
2706;SDS011;7819;48.046;7.642;2023-05-08T04:15:02;5.43;;;5.13;;
2706;SDS011;7819;48.046;7.642;2023-05-08T04:19:58;5.80;;;5.47;;
2706;SDS011;7819;48.046;7.642;2023-05-08T04:22:24;6.90;;;6.50;;
2706;SDS011;7819;48.046;7.642;2023-05-08T04:24:51;5.50;;;5.17;;
2706;SDS011;7819;48.046;7.642;2023-05-08T04:27:18;7.20;;;6.80;;
2706;SDS011;7819;48.046;7.642;2023-05-08T04:29:43;6.33;;;5.93;;
2706;SDS011;7819;48.046;7.642;2023-05-08T04:32:09;5.97;;;5.40;;
2706;SDS011;7819;48.046;7.642;2023-05-08T04:34:34;5.37;;;5.07;;
2706;SDS011;7819;48.046;7.642;2023-05-08T04:37:00;5.40;;;5.20;;
2706;SDS011;7819;48.046;7.642;2023-05-08T04:39:25;6.00;;;5.60;;
2706;SDS011;7819;48.046;7.642;2023-05-08T04:41:50;6.10;;;5.70;;
2706;SDS011;7819;48.046;7.642;2023-05-08T04:44:16;6.87;;;6.47;;
2706;SDS011;7819;48.046;7.642;2023-05-08T04:46:41;6.40;;;6.00;;
2706;SDS011;7819;48.046;7.642;2023-05-08T04:49:06;6.20;;;5.90;;
2706;SDS011;7819;48.046;7.642;2023-05-08T04:51:32;7.23;;;6.83;;
2706;SDS011;7819;48.046;7.642;2023-05-08T04:53:57;5.33;;;5.03;;
2706;SDS011;7819;48.046;7.642;2023-05-08T04:56:22;6.30;;;6.00;;
2706;SDS011;7819;48.046;7.642;2023-05-08T04:58:47;6.60;;;6.20;;
2706;SDS011;7819;48.046;7.642;2023-05-08T05:01:12;6.20;;;5.90;;
2706;SDS011;7819;48.046;7.642;2023-05-08T05:03:38;5.30;;;4.93;;
2706;SDS011;7819;48.046;7.642;2023-05-08T05:06:03;5.97;;;5.67;;
2706;SDS011;7819;48.046;7.642;2023-05-08T05:08:28;6.10;;;5.80;;
2706;SDS011;7819;48.046;7.642;2023-05-08T05:10:53;7.47;;;6.97;;
2706;SDS011;7819;48.046;7.642;2023-05-08T05:13:19;6.63;;;6.27;;
2706;SDS011;7819;48.046;7.642;2023-05-08T05:15:44;6.93;;;6.53;;
2706;SDS011;7819;48.046;7.642;2023-05-08T05:18:10;6.23;;;5.83;;
2706;SDS011;7819;48.046;7.642;2023-05-08T05:20:35;5.70;;;5.30;;
2706;SDS011;7819;48.046;7.642;2023-05-08T05:23:01;6.17;;;5.77;;
2706;SDS011;7819;48.046;7.642;2023-05-08T05:25:26;6.70;;;6.30;;
2706;SDS011;7819;48.046;7.642;2023-05-08T05:27:51;5.80;;;5.50;;
2706;SDS011;7819;48.046;7.642;2023-05-08T05:30:17;5.80;;;5.50;;
2706;SDS011;7819;48.046;7.642;2023-05-08T05:32:42;6.83;;;6.27;;
2706;SDS011;7819;48.046;7.642;2023-05-08T05:35:08;6.63;;;6.03;;
2706;SDS011;7819;48.046;7.642;2023-05-08T05:37:33;6.67;;;6.27;;
2706;SDS011;7819;48.046;7.642;2023-05-08T05:39:58;5.70;;;5.40;;
2706;SDS011;7819;48.046;7.642;2023-05-08T05:42:23;6.00;;;5.60;;
2706;SDS011;7819;48.046;7.642;2023-05-08T05:44:49;6.30;;;5.80;;
2706;SDS011;7819;48.046;7.642;2023-05-08T05:47:14;6.30;;;5.80;;
2706;SDS011;7819;48.046;7.642;2023-05-08T05:49:39;5.90;;;5.50;;
2706;SDS011;7819;48.046;7.642;2023-05-08T05:52:07;7.83;;;7.23;;
2706;SDS011;7819;48.046;7.642;2023-05-08T05:54:32;5.93;;;5.53;;
2706;SDS011;7819;48.046;7.642;2023-05-08T05:56:57;6.40;;;6.00;;
2706;SDS011;7819;48.046;7.642;2023-05-08T05:59:22;5.57;;;5.13;;
2706;SDS011;7819;48.046;7.642;2023-05-08T06:01:48;5.13;;;4.70;;
2706;SDS011;7819;48.046;7.642;2023-05-08T06:04:13;6.10;;;5.57;;
2706;SDS011;7819;48.046;7.642;2023-05-08T06:06:38;6.13;;;5.07;;
2706;SDS011;7819;48.046;7.642;2023-05-08T06:09:03;4.83;;;4.53;;
2706;SDS011;7819;48.046;7.642;2023-05-08T06:11:30;4.60;;;4.23;;
2706;SDS011;7819;48.046;7.642;2023-05-08T06:13:55;4.90;;;4.60;;
2706;SDS011;7819;48.046;7.642;2023-05-08T06:16:21;4.47;;;4.10;;
2706;SDS011;7819;48.046;7.642;2023-05-08T06:18:47;4.70;;;4.40;;
2706;SDS011;7819;48.046;7.642;2023-05-08T06:21:12;4.03;;;3.63;;
2706;SDS011;7819;48.046;7.642;2023-05-08T06:23:37;5.00;;;4.00;;
2706;SDS011;7819;48.046;7.642;2023-05-08T06:26:02;4.73;;;4.33;;
2706;SDS011;7819;48.046;7.642;2023-05-08T06:28:27;5.17;;;4.67;;
2706;SDS011;7819;48.046;7.642;2023-05-08T06:30:53;5.00;;;4.60;;
2706;SDS011;7819;48.046;7.642;2023-05-08T06:33:18;4.57;;;4.17;;
2706;SDS011;7819;48.046;7.642;2023-05-08T06:35:46;5.37;;;4.97;;
2706;SDS011;7819;48.046;7.642;2023-05-08T06:38:12;5.67;;;5.03;;
2706;SDS011;7819;48.046;7.642;2023-05-08T06:40:40;4.93;;;4.57;;
2706;SDS011;7819;48.046;7.642;2023-05-08T06:43:05;5.57;;;5.07;;
2706;SDS011;7819;48.046;7.642;2023-05-08T06:45:30;5.00;;;4.60;;
2706;SDS011;7819;48.046;7.642;2023-05-08T06:47:55;5.67;;;5.27;;
2706;SDS011;7819;48.046;7.642;2023-05-08T06:50:21;5.30;;;4.90;;
2706;SDS011;7819;48.046;7.642;2023-05-08T06:52:46;6.37;;;5.93;;
2706;SDS011;7819;48.046;7.642;2023-05-08T06:55:11;6.30;;;5.80;;
2706;SDS011;7819;48.046;7.642;2023-05-08T06:57:36;4.93;;;4.53;;
2706;SDS011;7819;48.046;7.642;2023-05-08T07:00:02;6.20;;;5.70;;
2706;SDS011;7819;48.046;7.642;2023-05-08T07:02:27;6.10;;;5.60;;
2706;SDS011;7819;48.046;7.642;2023-05-08T07:04:52;6.97;;;6.27;;
2706;SDS011;7819;48.046;7.642;2023-05-08T07:07:17;6.13;;;5.63;;
2706;SDS011;7819;48.046;7.642;2023-05-08T07:09:43;5.37;;;4.97;;
2706;SDS011;7819;48.046;7.642;2023-05-08T07:12:08;5.90;;;5.40;;
2706;SDS011;7819;48.046;7.642;2023-05-08T07:14:33;6.30;;;5.80;;
2706;SDS011;7819;48.046;7.642;2023-05-08T07:17:01;5.57;;;4.80;;
2706;SDS011;7819;48.046;7.642;2023-05-08T07:19:30;5.23;;;4.83;;
2706;SDS011;7819;48.046;7.642;2023-05-08T07:21:56;5.87;;;5.37;;
2706;SDS011;7819;48.046;7.642;2023-05-08T07:24:21;5.80;;;5.30;;
2706;SDS011;7819;48.046;7.642;2023-05-08T07:26:46;6.40;;;5.80;;
2706;SDS011;7819;48.046;7.642;2023-05-08T07:29:12;6.33;;;5.73;;
2706;SDS011;7819;48.046;7.642;2023-05-08T07:31:38;5.10;;;4.70;;
2706;SDS011;7819;48.046;7.642;2023-05-08T07:34:03;5.80;;;5.30;;
2706;SDS011;7819;48.046;7.642;2023-05-08T07:36:28;5.40;;;5.00;;
2706;SDS011;7819;48.046;7.642;2023-05-08T07:38:53;4.77;;;4.37;;
2706;SDS011;7819;48.046;7.642;2023-05-08T07:41:18;4.63;;;4.23;;
2706;SDS011;7819;48.046;7.642;2023-05-08T07:43:43;4.50;;;4.10;;
2706;SDS011;7819;48.046;7.642;2023-05-08T07:46:14;5.03;;;4.17;;
2706;SDS011;7819;48.046;7.642;2023-05-08T07:48:40;4.90;;;4.50;;
2706;SDS011;7819;48.046;7.642;2023-05-08T07:51:05;5.70;;;4.33;;
2706;SDS011;7819;48.046;7.642;2023-05-08T07:53:30;5.40;;;5.00;;
2706;SDS011;7819;48.046;7.642;2023-05-08T07:55:55;4.60;;;4.27;;
2706;SDS011;7819;48.046;7.642;2023-05-08T07:58:20;4.40;;;4.00;;
2706;SDS011;7819;48.046;7.642;2023-05-08T08:00:46;5.50;;;4.70;;
2706;SDS011;7819;48.046;7.642;2023-05-08T08:03:11;4.13;;;3.83;;
2706;SDS011;7819;48.046;7.642;2023-05-08T08:05:36;4.33;;;4.03;;
2706;SDS011;7819;48.046;7.642;2023-05-08T08:08:01;4.67;;;4.30;;
2706;SDS011;7819;48.046;7.642;2023-05-08T08:10:26;4.50;;;4.10;;
2706;SDS011;7819;48.046;7.642;2023-05-08T08:12:52;4.33;;;4.03;;
2706;SDS011;7819;48.046;7.642;2023-05-08T08:15:17;5.10;;;4.30;;
2706;SDS011;7819;48.046;7.642;2023-05-08T08:17:42;4.00;;;3.70;;
2706;SDS011;7819;48.046;7.642;2023-05-08T08:20:07;3.43;;;3.23;;
2706;SDS011;7819;48.046;7.642;2023-05-08T08:22:33;3.63;;;3.33;;
2706;SDS011;7819;48.046;7.642;2023-05-08T08:24:58;5.33;;;3.90;;
2706;SDS011;7819;48.046;7.642;2023-05-08T08:27:23;5.50;;;3.93;;
2706;SDS011;7819;48.046;7.642;2023-05-08T08:29:49;3.87;;;3.50;;
2706;SDS011;7819;48.046;7.642;2023-05-08T08:32:14;3.73;;;3.43;;
2706;SDS011;7819;48.046;7.642;2023-05-08T08:34:39;3.43;;;3.13;;
2706;SDS011;7819;48.046;7.642;2023-05-08T08:37:05;3.33;;;3.00;;
2706;SDS011;7819;48.046;7.642;2023-05-08T08:39:34;3.60;;;3.30;;
2706;SDS011;7819;48.046;7.642;2023-05-08T08:41:59;4.43;;;4.23;;
2706;SDS011;7819;48.046;7.642;2023-05-08T08:44:25;3.57;;;3.27;;
2706;SDS011;7819;48.046;7.642;2023-05-08T08:46:50;4.50;;;4.20;;
2706;SDS011;7819;48.046;7.642;2023-05-08T08:49:17;3.47;;;3.27;;
2706;SDS011;7819;48.046;7.642;2023-05-08T08:51:49;2.97;;;2.67;;
2706;SDS011;7819;48.046;7.642;2023-05-08T08:54:16;3.17;;;2.87;;
2706;SDS011;7819;48.046;7.642;2023-05-08T08:56:44;3.10;;;2.90;;
2706;SDS011;7819;48.046;7.642;2023-05-08T08:59:11;4.10;;;3.17;;
2706;SDS011;7819;48.046;7.642;2023-05-08T09:01:40;3.53;;;3.23;;
2706;SDS011;7819;48.046;7.642;2023-05-08T09:04:07;3.10;;;2.80;;
2706;SDS011;7819;48.046;7.642;2023-05-08T09:06:36;3.40;;;3.10;;
2706;SDS011;7819;48.046;7.642;2023-05-08T09:09:02;3.50;;;3.20;;
2706;SDS011;7819;48.046;7.642;2023-05-08T09:11:27;3.80;;;3.40;;
2706;SDS011;7819;48.046;7.642;2023-05-08T09:13:56;3.97;;;3.60;;
2706;SDS011;7819;48.046;7.642;2023-05-08T09:16:22;3.23;;;2.93;;
2706;SDS011;7819;48.046;7.642;2023-05-08T09:18:47;3.60;;;3.10;;
2706;SDS011;7819;48.046;7.642;2023-05-08T09:21:12;3.60;;;3.30;;
2706;SDS011;7819;48.046;7.642;2023-05-08T09:24:20;4.13;;;3.57;;
2706;SDS011;7819;48.046;7.642;2023-05-08T09:26:44;4.00;;;3.70;;
2706;SDS011;7819;48.046;7.642;2023-05-08T09:31:38;2.67;;;2.47;;
2706;SDS011;7819;48.046;7.642;2023-05-08T09:34:07;3.23;;;2.93;;
2706;SDS011;7819;48.046;7.642;2023-05-08T09:36:32;3.20;;;2.97;;
2706;SDS011;7819;48.046;7.642;2023-05-08T09:38:58;2.83;;;2.63;;
2706;SDS011;7819;48.046;7.642;2023-05-08T09:41:24;2.90;;;2.70;;
2706;SDS011;7819;48.046;7.642;2023-05-08T09:44:01;5.10;;;2.87;;
2706;SDS011;7819;48.046;7.642;2023-05-08T09:46:27;2.83;;;2.63;;
2706;SDS011;7819;48.046;7.642;2023-05-08T09:48:53;3.30;;;3.00;;
2706;SDS011;7819;48.046;7.642;2023-05-08T09:51:18;3.83;;;3.43;;
2706;SDS011;7819;48.046;7.642;2023-05-08T09:53:43;3.70;;;3.30;;
2706;SDS011;7819;48.046;7.642;2023-05-08T09:56:09;7.63;;;3.27;;
2706;SDS011;7819;48.046;7.642;2023-05-08T09:58:40;2.80;;;2.60;;
2706;SDS011;7819;48.046;7.642;2023-05-08T10:01:06;3.40;;;3.10;;
2706;SDS011;7819;48.046;7.642;2023-05-08T10:03:47;3.03;;;2.83;;
2706;SDS011;7819;48.046;7.642;2023-05-08T10:06:13;3.90;;;3.20;;
2706;SDS011;7819;48.046;7.642;2023-05-08T10:08:38;2.90;;;2.43;;
2706;SDS011;7819;48.046;7.642;2023-05-08T10:11:13;2.30;;;2.10;;
2706;SDS011;7819;48.046;7.642;2023-05-08T10:13:44;2.70;;;2.50;;
2706;SDS011;7819;48.046;7.642;2023-05-08T10:16:13;2.50;;;2.30;;
2706;SDS011;7819;48.046;7.642;2023-05-08T10:18:39;2.70;;;2.50;;
2706;SDS011;7819;48.046;7.642;2023-05-08T10:21:06;3.07;;;2.20;;
2706;SDS011;7819;48.046;7.642;2023-05-08T10:23:32;2.47;;;2.27;;
2706;SDS011;7819;48.046;7.642;2023-05-08T10:25:59;2.37;;;2.17;;
2706;SDS011;7819;48.046;7.642;2023-05-08T10:28:28;3.00;;;2.10;;
2706;SDS011;7819;48.046;7.642;2023-05-08T10:30:57;2.40;;;2.20;;
2706;SDS011;7819;48.046;7.642;2023-05-08T10:33:24;2.50;;;2.30;;
2706;SDS011;7819;48.046;7.642;2023-05-08T10:35:54;1.97;;;1.87;;
2706;SDS011;7819;48.046;7.642;2023-05-08T10:38:20;1.70;;;1.60;;
2706;SDS011;7819;48.046;7.642;2023-05-08T10:40:46;1.80;;;1.50;;
2706;SDS011;7819;48.046;7.642;2023-05-08T10:43:12;2.53;;;1.97;;
2706;SDS011;7819;48.046;7.642;2023-05-08T10:45:37;1.80;;;1.70;;
2706;SDS011;7819;48.046;7.642;2023-05-08T10:48:03;3.73;;;2.00;;
2706;SDS011;7819;48.046;7.642;2023-05-08T10:55:29;2.10;;;2.00;;
2706;SDS011;7819;48.046;7.642;2023-05-08T10:58:08;2.17;;;1.70;;
2706;SDS011;7819;48.046;7.642;2023-05-08T11:03:17;1.93;;;1.83;;
2706;SDS011;7819;48.046;7.642;2023-05-08T11:05:46;2.00;;;1.80;;
2706;SDS011;7819;48.046;7.642;2023-05-08T11:08:18;2.03;;;1.87;;
2706;SDS011;7819;48.046;7.642;2023-05-08T11:10:45;3.30;;;1.97;;
2706;SDS011;7819;48.046;7.642;2023-05-08T11:13:13;2.37;;;1.90;;
2706;SDS011;7819;48.046;7.642;2023-05-08T11:15:39;2.27;;;1.50;;
2706;SDS011;7819;48.046;7.642;2023-05-08T11:18:05;2.07;;;1.87;;
2706;SDS011;7819;48.046;7.642;2023-05-08T11:20:40;1.67;;;1.57;;
2706;SDS011;7819;48.046;7.642;2023-05-08T11:23:21;2.57;;;2.37;;
2706;SDS011;7819;48.046;7.642;2023-05-08T11:25:46;1.93;;;1.83;;
2706;SDS011;7819;48.046;7.642;2023-05-08T11:28:12;2.30;;;2.10;;
2706;SDS011;7819;48.046;7.642;2023-05-08T11:30:40;2.30;;;2.10;;
2706;SDS011;7819;48.046;7.642;2023-05-08T11:35:40;2.40;;;2.20;;
2706;SDS011;7819;48.046;7.642;2023-05-08T11:46:05;1.90;;;1.60;;
2706;SDS011;7819;48.046;7.642;2023-05-08T11:48:32;2.03;;;1.43;;
2706;SDS011;7819;48.046;7.642;2023-05-08T11:50:58;1.90;;;1.30;;
2706;SDS011;7819;48.046;7.642;2023-05-08T11:53:23;1.30;;;1.00;;
2706;SDS011;7819;48.046;7.642;2023-05-08T11:55:50;1.30;;;1.20;;
2706;SDS011;7819;48.046;7.642;2023-05-08T11:58:16;1.50;;;1.08;;
2706;SDS011;7819;48.046;7.642;2023-05-08T12:00:41;1.38;;;1.05;;
2706;SDS011;7819;48.046;7.642;2023-05-08T12:03:22;1.83;;;1.48;;
2706;SDS011;7819;48.046;7.642;2023-05-08T12:05:49;1.63;;;0.80;;
2706;SDS011;7819;48.046;7.642;2023-05-08T12:08:15;5.25;;;1.08;;
2706;SDS011;7819;48.046;7.642;2023-05-08T12:10:50;1.27;;;1.00;;
2706;SDS011;7819;48.046;7.642;2023-05-08T12:13:16;2.53;;;1.70;;
2706;SDS011;7819;48.046;7.642;2023-05-08T12:15:42;1.33;;;1.10;;
2706;SDS011;7819;48.046;7.642;2023-05-08T12:18:08;1.43;;;1.17;;
2706;SDS011;7819;48.046;7.642;2023-05-08T12:20:33;1.50;;;1.40;;
2706;SDS011;7819;48.046;7.642;2023-05-08T12:22:58;1.50;;;1.40;;
2706;SDS011;7819;48.046;7.642;2023-05-08T12:25:26;2.20;;;1.90;;
2706;SDS011;7819;48.046;7.642;2023-05-08T12:27:51;1.40;;;1.20;;
2706;SDS011;7819;48.046;7.642;2023-05-08T12:30:18;1.40;;;1.20;;
2706;SDS011;7819;48.046;7.642;2023-05-08T12:32:43;2.00;;;1.57;;
2706;SDS011;7819;48.046;7.642;2023-05-08T12:35:09;2.13;;;2.00;;
2706;SDS011;7819;48.046;7.642;2023-05-08T12:37:34;2.60;;;2.40;;
2706;SDS011;7819;48.046;7.642;2023-05-08T12:40:00;2.30;;;1.90;;
2706;SDS011;7819;48.046;7.642;2023-05-08T12:42:45;1.60;;;1.50;;
2706;SDS011;7819;48.046;7.642;2023-05-08T12:45:22;2.97;;;1.70;;
2706;SDS011;7819;48.046;7.642;2023-05-08T12:47:48;3.63;;;1.77;;
2706;SDS011;7819;48.046;7.642;2023-05-08T12:50:14;1.90;;;1.70;;
2706;SDS011;7819;48.046;7.642;2023-05-08T12:52:39;3.20;;;1.30;;
2706;SDS011;7819;48.046;7.642;2023-05-08T12:55:04;1.80;;;1.70;;
2706;SDS011;7819;48.046;7.642;2023-05-08T12:57:30;1.50;;;1.23;;
2706;SDS011;7819;48.046;7.642;2023-05-08T13:00:02;2.27;;;1.53;;
2706;SDS011;7819;48.046;7.642;2023-05-08T13:02:28;1.23;;;1.07;;
2706;SDS011;7819;48.046;7.642;2023-05-08T13:04:54;2.03;;;1.30;;
2706;SDS011;7819;48.046;7.642;2023-05-08T13:07:23;2.90;;;1.57;;
2706;SDS011;7819;48.046;7.642;2023-05-08T13:09:58;2.90;;;1.53;;
2706;SDS011;7819;48.046;7.642;2023-05-08T13:12:25;3.77;;;1.67;;
2706;SDS011;7819;48.046;7.642;2023-05-08T13:14:50;4.70;;;4.40;;
2706;SDS011;7819;48.046;7.642;2023-05-08T13:17:16;2.17;;;1.70;;
2706;SDS011;7819;48.046;7.642;2023-05-08T13:19:41;2.17;;;1.97;;
2706;SDS011;7819;48.046;7.642;2023-05-08T13:22:06;1.77;;;1.67;;
2706;SDS011;7819;48.046;7.642;2023-05-08T13:24:31;2.00;;;1.90;;
2706;SDS011;7819;48.046;7.642;2023-05-08T13:26:56;2.10;;;1.90;;
2706;SDS011;7819;48.046;7.642;2023-05-08T13:29:22;1.50;;;1.40;;
2706;SDS011;7819;48.046;7.642;2023-05-08T13:31:48;2.33;;;1.60;;
2706;SDS011;7819;48.046;7.642;2023-05-08T13:34:13;2.17;;;1.97;;
2706;SDS011;7819;48.046;7.642;2023-05-08T13:36:39;3.13;;;1.50;;
2706;SDS011;7819;48.046;7.642;2023-05-08T13:39:04;1.83;;;1.53;;
2706;SDS011;7819;48.046;7.642;2023-05-08T13:41:29;1.60;;;1.50;;
2706;SDS011;7819;48.046;7.642;2023-05-08T13:43:54;2.00;;;1.80;;
2706;SDS011;7819;48.046;7.642;2023-05-08T13:46:19;2.50;;;2.30;;
2706;SDS011;7819;48.046;7.642;2023-05-08T13:48:45;3.33;;;3.00;;
2706;SDS011;7819;48.046;7.642;2023-05-08T13:51:10;2.93;;;2.63;;
2706;SDS011;7819;48.046;7.642;2023-05-08T13:53:35;2.90;;;2.67;;
2706;SDS011;7819;48.046;7.642;2023-05-08T13:56:00;3.40;;;3.10;;
2706;SDS011;7819;48.046;7.642;2023-05-08T13:58:25;3.63;;;3.30;;
2706;SDS011;7819;48.046;7.642;2023-05-08T14:00:51;2.80;;;2.50;;
2706;SDS011;7819;48.046;7.642;2023-05-08T14:03:17;3.63;;;3.00;;
2706;SDS011;7819;48.046;7.642;2023-05-08T14:05:42;2.87;;;2.67;;
2706;SDS011;7819;48.046;7.642;2023-05-08T14:08:07;3.10;;;2.73;;
2706;SDS011;7819;48.046;7.642;2023-05-08T14:10:32;3.10;;;2.90;;
2706;SDS011;7819;48.046;7.642;2023-05-08T14:12:57;3.47;;;3.10;;
2706;SDS011;7819;48.046;7.642;2023-05-08T14:15:23;4.33;;;3.27;;
2706;SDS011;7819;48.046;7.642;2023-05-08T14:17:48;4.30;;;2.50;;
2706;SDS011;7819;48.046;7.642;2023-05-08T14:20:13;3.77;;;2.77;;
2706;SDS011;7819;48.046;7.642;2023-05-08T14:22:38;4.23;;;2.57;;
2706;SDS011;7819;48.046;7.642;2023-05-08T14:25:03;3.73;;;3.43;;
2706;SDS011;7819;48.046;7.642;2023-05-08T14:27:29;3.50;;;3.00;;
2706;SDS011;7819;48.046;7.642;2023-05-08T14:29:54;3.87;;;2.50;;
2706;SDS011;7819;48.046;7.642;2023-05-08T14:32:19;2.53;;;2.20;;
2706;SDS011;7819;48.046;7.642;2023-05-08T14:34:45;2.70;;;2.43;;
2706;SDS011;7819;48.046;7.642;2023-05-08T14:37:10;2.70;;;2.13;;
2706;SDS011;7819;48.046;7.642;2023-05-08T14:39:36;3.67;;;2.23;;
2706;SDS011;7819;48.046;7.642;2023-05-08T14:42:02;2.73;;;2.30;;
2706;SDS011;7819;48.046;7.642;2023-05-08T14:44:27;6.83;;;3.60;;
2706;SDS011;7819;48.046;7.642;2023-05-08T14:46:52;6.10;;;3.27;;
2706;SDS011;7819;48.046;7.642;2023-05-08T14:49:17;4.43;;;3.47;;
2706;SDS011;7819;48.046;7.642;2023-05-08T14:51:42;5.00;;;3.90;;
2706;SDS011;7819;48.046;7.642;2023-05-08T14:54:08;3.57;;;3.27;;
2706;SDS011;7819;48.046;7.642;2023-05-08T14:56:33;6.50;;;4.40;;
2706;SDS011;7819;48.046;7.642;2023-05-08T14:58:58;5.90;;;5.20;;
2706;SDS011;7819;48.046;7.642;2023-05-08T15:01:23;6.00;;;4.77;;
2706;SDS011;7819;48.046;7.642;2023-05-08T15:03:48;5.53;;;4.10;;
2706;SDS011;7819;48.046;7.642;2023-05-08T15:06:18;5.30;;;4.77;;
2706;SDS011;7819;48.046;7.642;2023-05-08T15:08:43;7.87;;;3.90;;
2706;SDS011;7819;48.046;7.642;2023-05-08T15:11:08;5.97;;;4.20;;
2706;SDS011;7819;48.046;7.642;2023-05-08T15:13:34;5.30;;;4.57;;
2706;SDS011;7819;48.046;7.642;2023-05-08T15:15:59;7.20;;;5.10;;
2706;SDS011;7819;48.046;7.642;2023-05-08T15:18:24;4.60;;;4.20;;
2706;SDS011;7819;48.046;7.642;2023-05-08T15:20:52;6.17;;;3.67;;
2706;SDS011;7819;48.046;7.642;2023-05-08T15:23:17;5.73;;;4.10;;
2706;SDS011;7819;48.046;7.642;2023-05-08T15:25:44;4.30;;;3.90;;
2706;SDS011;7819;48.046;7.642;2023-05-08T15:28:09;3.50;;;3.20;;
2706;SDS011;7819;48.046;7.642;2023-05-08T15:30:34;3.23;;;2.93;;
2706;SDS011;7819;48.046;7.642;2023-05-08T15:32:59;4.20;;;3.40;;
2706;SDS011;7819;48.046;7.642;2023-05-08T15:35:25;3.33;;;3.03;;
2706;SDS011;7819;48.046;7.642;2023-05-08T15:37:50;3.53;;;3.00;;
2706;SDS011;7819;48.046;7.642;2023-05-08T15:40:15;4.00;;;3.07;;
2706;SDS011;7819;48.046;7.642;2023-05-08T15:42:41;4.40;;;3.73;;
2706;SDS011;7819;48.046;7.642;2023-05-08T15:45:06;3.73;;;3.27;;
2706;SDS011;7819;48.046;7.642;2023-05-08T15:47:31;3.97;;;2.80;;
2706;SDS011;7819;48.046;7.642;2023-05-08T15:49:57;2.90;;;2.70;;
2706;SDS011;7819;48.046;7.642;2023-05-08T15:52:22;2.70;;;2.47;;
2706;SDS011;7819;48.046;7.642;2023-05-08T15:54:48;5.10;;;2.20;;
2706;SDS011;7819;48.046;7.642;2023-05-08T15:57:13;5.43;;;2.80;;
2706;SDS011;7819;48.046;7.642;2023-05-08T15:59:38;3.83;;;3.37;;
2706;SDS011;7819;48.046;7.642;2023-05-08T16:02:04;2.90;;;2.37;;